createdAt,value
2019-05-15T00:01:08.512Z,101807.75
2019-05-15T00:03:39.156Z,101814.99
2019-05-15T00:06:08.437Z,101815.05
2019-05-15T00:08:38.725Z,101811.14
2019-05-15T00:11:08.421Z,101817.41
2019-05-15T00:13:39.002Z,101809.65
2019-05-15T00:16:08.475Z,101814.75
2019-05-15T00:18:39.025Z,101815.42
2019-05-15T00:21:09.261Z,101818.75
2019-05-15T00:23:38.747Z,101815.05
2019-05-15T00:26:09.226Z,101819.36
2019-05-15T00:28:38.851Z,101812.98
2019-05-15T00:31:09.052Z,101813.14
2019-05-15T00:33:39.342Z,101814.62
2019-05-15T00:36:08.728Z,101814.80
2019-05-15T00:38:39.006Z,101810.55
2019-05-15T00:41:09.433Z,101806.28
2019-05-15T00:43:38.718Z,101810.06
2019-05-15T00:46:09.132Z,101803.54
2019-05-15T00:48:39.950Z,101809.48
2019-05-15T00:51:08.460Z,101800.53
2019-05-15T00:53:39.025Z,101802.48
2019-05-15T00:56:08.947Z,101803.13
2019-05-15T00:58:39.924Z,101796.19
2019-05-15T01:01:08.418Z,101795.56
2019-05-15T01:03:38.777Z,101799.70
2019-05-15T01:06:08.347Z,101791.38
2019-05-15T01:08:39.050Z,101792.95
2019-05-15T01:11:09.059Z,101783.03
2019-05-15T01:13:38.914Z,101782.08
2019-05-15T01:16:09.198Z,101780.48
2019-05-15T01:18:38.588Z,101775.05
2019-05-15T01:21:08.352Z,101780.13
2019-05-15T01:23:39.136Z,101775.07
2019-05-15T01:26:08.340Z,101776.26
2019-05-15T01:28:38.466Z,101778.19
2019-05-15T01:31:08.577Z,101780.67
2019-05-15T01:33:39.008Z,101779.16
2019-05-15T01:36:08.461Z,101777.55
2019-05-15T01:38:38.892Z,101774.70
2019-05-15T01:41:09.733Z,101779.01
2019-05-15T01:43:38.260Z,101776.20
2019-05-15T01:46:08.356Z,101776.42
2019-05-15T01:48:38.728Z,101772.61
2019-05-15T01:51:09.316Z,101767.50
2019-05-15T01:53:38.614Z,101768.64
2019-05-15T01:56:08.441Z,101769.73
2019-05-15T01:58:38.273Z,101766.33
2019-05-15T02:01:08.195Z,101771.84
2019-05-15T02:03:38.500Z,101765.80
2019-05-15T02:06:08.220Z,101770.72
2019-05-15T02:08:39.329Z,101762.32
2019-05-15T02:11:09.203Z,101762.32
2019-05-15T02:13:38.867Z,101767.64
2019-05-15T02:16:08.374Z,101767.27
2019-05-15T02:18:39.164Z,101768.64
2019-05-15T02:21:10.167Z,101772.05
2019-05-15T02:23:38.762Z,101768.92
2019-05-15T02:26:07.968Z,101762.69
2019-05-15T02:28:38.410Z,101768.92
2019-05-15T02:31:10.215Z,101768.27
2019-05-15T02:33:39.902Z,101774.47
2019-05-15T02:36:09.706Z,101770.47
2019-05-15T02:38:40.926Z,101772.59
2019-05-15T02:41:09.890Z,101772.18
2019-05-15T02:43:39.282Z,101768.98
2019-05-15T02:46:10.143Z,101770.72
2019-05-15T02:48:40.937Z,101764.06
2019-05-15T02:51:09.743Z,101768.05
2019-05-15T02:53:39.851Z,101768.05
2019-05-15T02:56:09.500Z,101764.98
2019-05-15T02:58:39.762Z,101767.27
2019-05-15T03:01:09.428Z,101761.53
2019-05-15T03:03:39.002Z,101764.33
2019-05-15T03:06:09.924Z,101770.60
2019-05-15T03:08:39.823Z,101774.19
2019-05-15T03:11:09.735Z,101768.53
2019-05-15T03:13:39.340Z,101766.78
2019-05-15T03:16:10.041Z,101765.53
2019-05-15T03:18:39.788Z,101768.33
2019-05-15T03:21:09.594Z,101769.25
2019-05-15T03:23:40.477Z,101768.00
2019-05-15T03:26:09.169Z,101766.72
2019-05-15T03:28:39.139Z,101770.88
2019-05-15T03:31:26.426Z,101774.45
2019-05-15T03:33:45.123Z,101768.72
2019-05-15T03:36:13.590Z,101769.34
2019-05-15T03:38:39.700Z,101771.12
2019-05-15T03:41:10.237Z,101778.70
2019-05-15T03:43:39.558Z,101774.45
2019-05-15T03:46:09.018Z,101775.87
2019-05-15T03:48:40.244Z,101776.00
2019-05-15T03:51:09.198Z,101774.72
2019-05-15T03:53:40.026Z,101774.34
2019-05-15T03:56:09.749Z,101773.05
2019-05-15T03:58:40.000Z,101775.34
2019-05-15T04:01:27.702Z,101768.27
2019-05-15T04:03:39.368Z,101769.19
2019-05-15T04:06:10.169Z,101770.52
2019-05-15T04:08:39.280Z,101767.94
2019-05-15T04:11:09.090Z,101773.27
2019-05-15T04:13:39.528Z,101769.73
2019-05-15T04:16:10.396Z,101764.87
2019-05-15T04:18:39.727Z,101765.33
2019-05-15T04:21:09.154Z,101769.31
2019-05-15T04:23:39.342Z,101768.40
2019-05-15T04:26:09.357Z,101765.20
2019-05-15T04:28:41.835Z,101765.08
2019-05-15T04:31:10.705Z,101771.06
2019-05-15T04:33:40.175Z,101771.80
2019-05-15T04:36:09.748Z,101775.16
2019-05-15T04:38:39.398Z,101774.50
2019-05-15T04:41:09.531Z,101773.86
2019-05-15T04:43:44.445Z,101773.66
2019-05-15T04:46:10.060Z,101768.99
2019-05-15T04:48:39.777Z,101769.65
2019-05-15T04:51:09.789Z,101766.27
2019-05-15T04:53:39.701Z,101766.05
2019-05-15T04:56:09.456Z,101768.91
2019-05-15T04:58:39.437Z,101768.18
2019-05-15T05:01:09.534Z,101770.16
2019-05-15T05:03:39.401Z,101771.61
2019-05-15T05:06:09.811Z,101775.33
2019-05-15T05:08:39.708Z,101775.98
2019-05-15T05:11:09.711Z,101777.86
2019-05-15T05:13:39.230Z,101777.00
2019-05-15T05:16:09.599Z,101787.28
2019-05-15T05:18:41.471Z,101779.72
2019-05-15T05:21:08.735Z,101778.52
2019-05-15T05:23:37.780Z,101778.10
2019-05-15T05:26:08.813Z,101777.83
2019-05-15T05:28:37.933Z,101783.16
2019-05-15T05:31:08.375Z,101776.59
2019-05-15T05:33:38.163Z,101778.31
2019-05-15T05:43:30.014Z,101772.02
2019-05-15T05:45:58.581Z,101785.58
2019-05-15T05:48:29.252Z,101780.22
2019-05-15T05:50:58.438Z,101777.09
2019-05-15T05:53:28.715Z,101775.58
2019-05-15T05:55:58.045Z,101774.19
2019-05-15T05:58:29.495Z,101779.65
2019-05-15T06:00:58.645Z,101784.20
2019-05-15T06:03:28.051Z,101778.40
2019-05-15T06:05:59.081Z,101783.18
2019-05-15T06:08:28.238Z,101771.02
2019-05-15T06:10:58.509Z,101769.50
2019-05-15T06:13:29.081Z,101768.16
2019-05-15T06:15:59.051Z,101778.69
2019-05-15T06:18:28.233Z,101774.45
2019-05-15T06:20:58.676Z,101775.54
2019-05-15T06:23:33.806Z,101774.38
2019-05-15T06:25:59.287Z,101766.73
2019-05-15T06:28:28.968Z,101769.51
2019-05-15T06:31:00.822Z,101779.76
2019-05-15T06:33:28.034Z,101785.00
2019-05-15T06:35:59.064Z,101780.13
2019-05-15T06:38:30.787Z,101782.24
2019-05-15T06:40:58.284Z,101771.94
2019-05-15T06:43:28.057Z,101780.31
2019-05-15T06:45:58.416Z,101771.70
2019-05-15T06:48:28.870Z,101776.34
2019-05-15T06:50:58.047Z,101776.92
2019-05-15T06:53:28.864Z,101774.58
2019-05-15T06:55:58.475Z,101781.31
2019-05-15T06:58:28.967Z,101777.09
2019-05-15T07:00:59.223Z,101778.00
2019-05-15T07:03:29.320Z,101786.08
2019-05-15T07:05:59.767Z,101768.76
2019-05-15T07:08:28.826Z,101772.03
2019-05-15T07:10:57.958Z,101770.22
2019-05-15T07:13:28.846Z,101774.35
2019-05-15T07:15:58.542Z,101779.70
2019-05-15T07:18:28.351Z,101769.90
2019-05-15T07:20:58.045Z,101758.56
2019-05-15T07:23:30.354Z,101772.39
2019-05-15T07:25:58.732Z,101760.13
2019-05-15T07:28:28.823Z,101765.49
2019-05-15T07:30:58.398Z,101770.03
2019-05-15T07:33:38.718Z,101766.53
2019-05-15T07:35:59.053Z,101762.34
2019-05-15T07:38:28.250Z,101761.09
2019-05-15T07:41:01.106Z,101759.44
2019-05-15T07:43:28.063Z,101753.19
2019-05-15T07:45:59.055Z,101751.15
2019-05-15T07:48:29.087Z,101747.59
2019-05-15T07:50:59.442Z,101748.27
2019-05-15T07:53:28.872Z,101756.39
2019-05-15T07:56:01.282Z,101750.79
2019-05-15T07:58:27.896Z,101748.46
2019-05-15T08:00:59.004Z,101749.83
2019-05-15T08:03:29.167Z,101750.69
2019-05-15T08:06:02.129Z,101739.23
2019-05-15T08:08:28.998Z,101743.87
2019-05-15T08:10:57.932Z,101740.20
2019-05-15T08:13:28.775Z,101751.52
2019-05-15T08:15:58.037Z,101734.62
2019-05-15T08:18:28.584Z,101740.20
2019-05-15T08:20:58.570Z,101730.25
2019-05-15T08:23:28.399Z,101729.48
2019-05-15T08:25:57.997Z,101727.39
2019-05-15T08:28:28.731Z,101722.11
2019-05-15T08:30:58.407Z,101716.09
2019-05-15T08:33:28.058Z,101721.20
2019-05-15T08:35:58.805Z,101721.34
2019-05-15T08:38:28.838Z,101718.28
2019-05-15T08:40:59.200Z,101712.34
2019-05-15T08:43:29.105Z,101712.21
2019-05-15T08:45:58.663Z,101711.37
2019-05-15T08:48:27.795Z,101704.87
2019-05-15T08:50:57.931Z,101702.14
2019-05-15T08:53:28.537Z,101703.66
2019-05-15T08:55:58.790Z,101709.26
2019-05-15T08:58:29.038Z,101707.67
2019-05-15T09:00:58.725Z,101710.20
2019-05-15T09:03:28.651Z,101710.06
2019-05-15T09:05:59.033Z,101691.02
2019-05-15T09:08:29.337Z,101698.45
2019-05-15T09:10:58.806Z,101692.91
2019-05-15T09:13:29.236Z,101692.78
2019-05-15T09:15:58.941Z,101702.22
2019-05-15T09:18:28.397Z,101687.47
2019-05-15T09:20:59.391Z,101682.83
2019-05-15T09:23:28.906Z,101690.55
2019-05-15T09:25:57.974Z,101685.41
2019-05-15T09:28:29.319Z,101681.56
2019-05-15T09:30:59.144Z,101686.53
2019-05-15T09:33:28.565Z,101688.58
2019-05-15T09:35:58.302Z,101680.09
2019-05-15T09:38:28.940Z,101673.43
2019-05-15T09:40:58.568Z,101659.67
2019-05-15T09:43:28.551Z,101659.16
2019-05-15T09:45:58.305Z,101670.38
2019-05-15T09:48:28.697Z,101660.59
2019-05-15T09:50:58.712Z,101649.92
2019-05-15T09:53:28.560Z,101649.25
2019-05-15T09:55:59.736Z,101648.69
2019-05-15T09:58:30.040Z,101661.37
2019-05-15T10:00:57.984Z,101652.78
2019-05-15T10:03:28.251Z,101662.16
2019-05-15T10:05:56.936Z,101645.60
2019-05-15T10:08:25.384Z,101639.84
2019-05-15T10:10:53.898Z,101646.59
2019-05-15T10:13:22.414Z,101641.08
2019-05-15T10:15:51.379Z,101648.31
2019-05-15T10:18:19.947Z,101632.12
2019-05-15T10:20:49.027Z,101631.19
2019-05-15T10:23:19.630Z,101623.36
2019-05-15T10:25:48.517Z,101623.26
2019-05-15T10:28:19.052Z,101618.72
2019-05-15T10:30:49.619Z,101622.27
2019-05-15T10:33:19.743Z,101613.44
2019-05-15T10:35:49.187Z,101615.38
2019-05-15T10:38:19.360Z,101600.38
2019-05-15T10:40:59.940Z,101604.00
2019-05-15T10:43:20.561Z,101604.02
2019-05-15T10:45:49.986Z,101605.41
2019-05-15T10:48:19.215Z,101603.18
2019-05-15T10:50:47.863Z,101597.72
2019-05-15T10:53:18.720Z,101603.49
2019-05-15T10:55:49.616Z,101589.31
2019-05-15T10:58:21.744Z,101590.26
2019-05-15T11:00:49.400Z,101586.85
2019-05-15T11:03:20.017Z,101580.78
2019-05-15T11:05:49.278Z,101584.89
2019-05-15T11:08:18.837Z,101579.47
2019-05-15T11:10:49.355Z,101582.33
2019-05-15T11:13:18.816Z,101577.91
2019-05-15T11:15:49.191Z,101567.16
2019-05-15T11:18:18.048Z,101562.24
2019-05-15T11:20:48.797Z,101562.91
2019-05-15T11:23:19.543Z,101561.19
2019-05-15T11:25:48.763Z,101546.01
2019-05-15T11:28:17.852Z,101554.22
2019-05-15T11:30:49.095Z,101546.34
2019-05-15T11:33:18.868Z,101542.42
2019-05-15T11:35:58.076Z,101536.61
2019-05-15T11:38:19.485Z,101533.52
2019-05-15T11:40:47.846Z,101528.92
2019-05-15T11:43:19.353Z,101527.20
2019-05-15T11:45:48.191Z,101522.79
2019-05-15T11:48:20.150Z,101520.73
2019-05-15T11:50:47.285Z,101521.95
2019-05-15T11:53:15.871Z,101517.72
2019-05-15T11:55:44.454Z,101527.44
2019-05-15T11:58:12.924Z,101525.56
2019-05-15T12:00:41.510Z,101510.88
2019-05-15T12:03:10.054Z,101516.51
2019-05-15T12:05:38.908Z,101516.34
2019-05-15T12:08:09.031Z,101498.41
2019-05-15T12:10:38.915Z,101506.73
2019-05-15T12:13:09.828Z,101509.81
2019-05-15T12:15:38.875Z,101504.72
2019-05-15T12:18:08.910Z,101500.65
2019-05-15T12:20:39.010Z,101505.77
2019-05-15T12:23:09.132Z,101499.80
2019-05-15T12:25:39.479Z,101500.66
2019-05-15T12:28:09.664Z,101494.84
2019-05-15T12:30:40.284Z,101500.66
2019-05-15T12:33:09.774Z,101506.27
2019-05-15T12:38:09.953Z,101499.80
2019-05-15T13:00:41.554Z,101484.94
2019-05-15T13:03:10.253Z,101484.98
2019-05-15T13:05:39.376Z,101485.14
2019-05-15T13:08:08.537Z,101483.25
2019-05-15T13:10:38.566Z,101459.70
2019-05-15T13:13:09.481Z,101467.87
2019-05-15T13:15:40.983Z,101478.80
2019-05-15T13:18:13.965Z,101474.17
2019-05-15T13:20:38.720Z,101465.48
2019-05-15T13:23:08.495Z,101458.54
2019-05-15T13:25:39.506Z,101454.75
2019-05-15T13:28:08.853Z,101454.06
2019-05-15T13:30:41.240Z,101453.59
2019-05-15T13:33:09.797Z,101437.41
2019-05-15T13:35:38.380Z,101440.13
2019-05-15T13:38:09.527Z,101453.74
2019-05-15T13:40:41.757Z,101447.11
2019-05-15T13:43:08.363Z,101443.00
2019-05-15T13:45:38.784Z,101436.02
2019-05-15T13:48:08.955Z,101434.82
2019-05-15T13:50:40.475Z,101431.78
2019-05-15T13:53:10.434Z,101430.76
2019-05-15T13:55:42.380Z,101431.42
2019-05-15T13:58:09.124Z,101428.36
2019-05-15T14:00:38.974Z,101422.57
2019-05-15T14:03:09.234Z,101421.19
2019-05-15T14:05:38.700Z,101425.59
2019-05-15T14:08:07.697Z,101425.78
2019-05-15T14:10:38.493Z,101426.98
2019-05-15T14:13:06.574Z,101411.02
2019-05-15T14:15:38.037Z,101418.68
2019-05-15T14:18:05.837Z,101411.41
2019-05-15T14:20:34.356Z,101411.05
2019-05-15T14:23:02.909Z,101405.48
2019-05-15T14:25:31.495Z,101407.38
2019-05-15T14:28:00.012Z,101407.11
2019-05-15T14:30:29.267Z,101408.44
2019-05-15T14:32:59.846Z,101408.61
2019-05-15T14:35:28.379Z,101412.33
2019-05-15T14:38:05.863Z,101402.41
2019-05-15T14:40:27.807Z,101400.05
2019-05-15T14:42:59.203Z,101392.84
2019-05-15T14:45:28.010Z,101392.91
2019-05-15T14:47:58.178Z,101384.89
2019-05-15T14:50:28.355Z,101382.89
2019-05-15T14:52:58.560Z,101386.47
2019-05-15T14:55:33.373Z,101381.12
2019-05-15T14:57:58.797Z,101387.58
2019-05-15T15:00:33.341Z,101381.92
2019-05-15T15:02:58.881Z,101380.59
2019-05-15T15:05:27.747Z,101382.69
2019-05-15T15:07:58.568Z,101374.48
2019-05-15T15:10:28.916Z,101382.08
2019-05-15T15:12:58.631Z,101368.30
2019-05-15T15:15:28.680Z,101367.36
2019-05-15T15:17:58.448Z,101365.50
2019-05-15T15:20:28.551Z,101362.85
2019-05-15T15:22:58.752Z,101369.00
2019-05-15T15:25:27.491Z,101362.64
2019-05-15T15:27:58.472Z,101354.16
2019-05-15T15:30:26.400Z,101357.40
2019-05-15T15:32:54.981Z,101352.77
2019-05-15T15:35:23.565Z,101350.94
2019-05-15T15:37:52.156Z,101355.40
2019-05-15T15:40:20.916Z,101360.72
2019-05-15T15:42:49.504Z,101352.54
2019-05-15T15:45:19.284Z,101350.86
2019-05-15T15:47:48.174Z,101343.52
2019-05-15T15:50:18.301Z,101335.05
2019-05-15T15:52:48.877Z,101342.43
2019-05-15T15:55:18.436Z,101342.41
2019-05-15T15:57:48.706Z,101338.80
2019-05-15T16:00:18.377Z,101336.21
2019-05-15T16:02:48.423Z,101330.95
2019-05-15T16:05:19.104Z,101325.83
2019-05-15T16:07:48.508Z,101327.09
2019-05-15T16:10:18.982Z,101325.25
2019-05-15T16:12:49.207Z,101314.99
2019-05-15T16:15:18.237Z,101321.19
2019-05-15T16:17:48.849Z,101314.38
2019-05-15T16:20:18.903Z,101312.16
2019-05-15T16:22:48.594Z,101310.36
2019-05-15T16:25:18.440Z,101306.00
2019-05-15T16:27:48.803Z,101306.57
2019-05-15T16:30:18.882Z,101310.83
2019-05-15T16:32:47.416Z,101300.83
2019-05-15T16:35:18.283Z,101296.44
2019-05-15T16:37:49.005Z,101309.59
2019-05-15T16:40:18.370Z,101309.14
2019-05-15T16:42:48.857Z,101304.23
2019-05-15T16:45:18.375Z,101306.05
2019-05-15T16:47:48.020Z,101302.31
2019-05-15T16:50:18.123Z,101298.95
2019-05-15T16:52:48.994Z,101298.09
2019-05-15T16:55:17.678Z,101294.32
2019-05-15T16:57:47.942Z,101297.52
2019-05-15T17:00:18.617Z,101296.73
2019-05-15T17:02:48.233Z,101293.41
2019-05-15T17:05:18.548Z,101298.19
2019-05-15T17:07:48.834Z,101301.37
2019-05-15T17:10:18.028Z,101301.02
2019-05-15T17:12:49.071Z,101304.07
2019-05-15T17:15:17.473Z,101300.52
2019-05-15T17:17:48.598Z,101308.91
2019-05-15T17:20:18.101Z,101305.09
2019-05-15T17:22:48.363Z,101300.81
2019-05-15T17:25:18.440Z,101305.64
2019-05-15T17:27:47.657Z,101303.42
2019-05-15T17:30:18.318Z,101296.72
2019-05-15T17:32:49.416Z,101294.40
2019-05-15T17:35:18.991Z,101290.98
2019-05-15T17:37:49.160Z,101289.27
2019-05-15T17:40:19.015Z,101282.52
2019-05-15T17:42:49.359Z,101287.58
2019-05-15T17:48:41.678Z,101282.30
2019-05-15T17:51:12.025Z,101297.94
2019-05-15T17:53:43.361Z,101289.73
2019-05-15T17:56:14.506Z,101294.80
2019-05-15T17:58:45.055Z,101292.45
2019-05-15T18:01:13.817Z,101296.92
2019-05-15T18:03:42.563Z,101290.63
2019-05-15T18:06:11.316Z,101291.08
2019-05-15T18:08:40.268Z,101289.27
2019-05-15T18:11:08.963Z,101287.73
2019-05-15T18:13:38.300Z,101288.39
2019-05-15T18:16:13.273Z,101284.48
2019-05-15T18:18:40.025Z,101279.75
2019-05-15T18:21:10.669Z,101278.06
2019-05-15T18:23:41.866Z,101281.02
2019-05-15T18:26:12.539Z,101283.73
2019-05-15T18:28:43.786Z,101281.92
2019-05-15T18:31:15.152Z,101287.34
2019-05-15T18:33:53.496Z,101288.81
2019-05-15T18:36:17.103Z,101291.53
2019-05-15T18:38:48.264Z,101295.01
2019-05-15T18:41:19.999Z,101291.86
2019-05-15T18:43:51.380Z,101291.98
2019-05-15T18:47:18.638Z,101289.69
2019-05-15T18:50:03.737Z,101295.81
2019-05-15T18:52:21.784Z,101292.41
2019-05-15T18:54:53.710Z,101299.28
2019-05-15T18:57:24.870Z,101291.79
2019-05-15T18:59:58.035Z,101289.45
2019-05-15T19:02:31.126Z,101297.03
2019-05-15T19:05:01.786Z,101301.55
2019-05-15T19:07:35.315Z,101297.38
2019-05-15T19:10:08.441Z,101299.58
2019-05-15T19:12:40.208Z,101296.40
2019-05-15T19:15:11.819Z,101297.26
2019-05-15T19:17:43.158Z,101294.17
2019-05-15T19:20:14.627Z,101290.37
2019-05-15T19:22:48.249Z,101294.77
2019-05-15T19:25:18.436Z,101291.33
2019-05-15T19:28:42.658Z,101287.99
2019-05-15T19:31:25.913Z,101288.20
2019-05-15T19:33:46.839Z,101285.36
2019-05-15T19:36:18.289Z,101289.98
2019-05-15T19:38:50.130Z,101287.75
2019-05-15T19:41:21.055Z,101283.70
2019-05-15T19:43:51.981Z,101287.45
2019-05-15T19:46:23.200Z,101284.95
2019-05-15T19:49:48.377Z,101284.25
2019-05-15T19:52:20.020Z,101285.56
2019-05-15T19:54:51.538Z,101280.29
2019-05-15T19:57:23.187Z,101282.46
2019-05-15T19:59:54.163Z,101284.77
2019-05-15T20:02:28.438Z,101285.37
2019-05-15T20:04:58.733Z,101277.28
2019-05-15T20:07:29.081Z,101280.50
2019-05-15T20:10:53.274Z,101275.47
2019-05-15T20:13:23.679Z,101280.36
2019-05-15T20:15:53.408Z,101281.80
2019-05-15T20:18:22.566Z,101282.05
2019-05-15T20:20:52.629Z,101281.28
2019-05-15T20:23:21.910Z,101277.73
2019-05-15T20:25:50.677Z,101279.84
2019-05-15T20:28:19.291Z,101278.77
2019-05-15T20:30:48.587Z,101280.58
2019-05-15T20:33:18.206Z,101278.86
2019-05-15T20:35:47.981Z,101284.34
2019-05-15T20:38:17.618Z,101282.41
2019-05-15T20:40:48.595Z,101280.97
2019-05-15T20:43:18.539Z,101276.94
2019-05-15T20:45:48.474Z,101274.87
2019-05-15T20:48:18.816Z,101273.95
2019-05-15T20:50:49.084Z,101269.83
2019-05-15T20:53:18.641Z,101277.70
2019-05-15T20:55:48.564Z,101277.98
2019-05-15T20:58:19.421Z,101272.55
2019-05-15T21:00:49.621Z,101271.63
2019-05-15T21:03:19.343Z,101285.21
2019-05-15T21:05:48.808Z,101283.48
2019-05-15T21:08:18.252Z,101278.91
2019-05-15T21:10:49.231Z,101278.41
2019-05-15T21:13:17.413Z,101279.72
2019-05-15T21:15:48.322Z,101277.22
2019-05-15T21:18:16.992Z,101272.16
2019-05-15T21:20:48.332Z,101270.75
2019-05-15T21:23:18.259Z,101268.94
2019-05-15T21:25:48.422Z,101262.36
2019-05-15T21:28:17.483Z,101263.48
2019-05-15T21:30:45.932Z,101261.66
2019-05-15T21:33:14.382Z,101262.42
2019-05-15T21:35:42.980Z,101264.31
2019-05-15T21:38:11.680Z,101265.86
2019-05-15T21:40:40.194Z,101265.69
2019-05-15T21:43:08.935Z,101268.09
2019-05-15T21:45:37.687Z,101264.80
2019-05-15T21:48:09.007Z,101266.08
2019-05-15T21:50:38.801Z,101265.62
2019-05-15T21:53:07.551Z,101264.14
2019-05-15T21:55:36.231Z,101258.81
2019-05-15T21:58:04.840Z,101255.89
2019-05-15T22:00:38.197Z,101255.91
2019-05-15T22:03:07.293Z,101252.89
2019-05-15T22:05:37.976Z,101254.02
2019-05-15T22:08:07.840Z,101249.66
2019-05-15T22:10:38.834Z,101250.05
2019-05-15T22:13:07.561Z,101249.51
2019-05-15T22:15:36.141Z,101253.53
2019-05-15T22:18:05.221Z,101255.39
2019-05-15T22:20:33.928Z,101254.56
2019-05-15T22:23:02.558Z,101253.62
2019-05-15T22:25:31.136Z,101253.54
2019-05-15T22:27:59.892Z,101248.70
2019-05-15T22:30:30.345Z,101241.64
2019-05-15T22:32:58.950Z,101237.74
2019-05-15T22:35:29.557Z,101234.98
2019-05-15T22:37:58.569Z,101231.16
2019-05-15T22:40:28.937Z,101238.44
2019-05-15T22:42:59.109Z,101239.85
2019-05-15T22:45:28.507Z,101234.50
2019-05-15T22:47:58.552Z,101235.45
2019-05-15T22:50:28.081Z,101231.44
2019-05-15T22:52:58.785Z,101233.84
2019-05-15T22:55:28.904Z,101228.58
2019-05-15T22:57:58.624Z,101225.28
2019-05-15T23:00:28.992Z,101227.77
2019-05-15T23:02:58.189Z,101220.84
2019-05-15T23:05:31.396Z,101209.81
2019-05-15T23:07:58.860Z,101211.77
2019-05-15T23:10:29.146Z,101214.11
2019-05-15T23:12:58.265Z,101217.13
2019-05-15T23:15:28.226Z,101205.89
2019-05-15T23:17:58.344Z,101207.09
2019-05-15T23:20:28.634Z,101207.80
2019-05-15T23:22:58.508Z,101197.77
2019-05-15T23:25:29.015Z,101202.15
2019-05-15T23:27:58.170Z,101198.96
2019-05-15T23:30:28.866Z,101197.20
2019-05-15T23:32:58.064Z,101196.00
2019-05-15T23:35:35.472Z,101190.16
2019-05-15T23:37:58.094Z,101189.69
2019-05-15T23:40:28.775Z,101187.27
2019-05-15T23:42:57.167Z,101183.03
2019-05-15T23:45:25.797Z,101185.86
2019-05-15T23:47:54.570Z,101186.02
2019-05-15T23:50:23.093Z,101174.70
2019-05-15T23:52:51.721Z,101179.59
2019-05-15T23:55:20.234Z,101179.46
2019-05-15T23:57:48.783Z,101179.84
